sensor_id;sensor_type;location;lat;lon;timestamp;P1;durP1;ratioP1;P2;durP2;ratioP2
23258;SDS011;11798;51.528;7.240;2023-03-25T00:01:58;4.13;;;1.60;;
23258;SDS011;11798;51.528;7.240;2023-03-25T00:04:24;5.57;;;1.27;;
23258;SDS011;11798;51.528;7.240;2023-03-25T00:06:53;4.37;;;1.40;;
23258;SDS011;11798;51.528;7.240;2023-03-25T00:09:20;4.90;;;1.60;;
23258;SDS011;11798;51.528;7.240;2023-03-25T00:11:48;3.13;;;1.30;;
23258;SDS011;11798;51.528;7.240;2023-03-25T00:14:14;3.33;;;1.47;;
23258;SDS011;11798;51.528;7.240;2023-03-25T00:16:41;1.80;;;1.20;;
23258;SDS011;11798;51.528;7.240;2023-03-25T00:19:09;4.93;;;1.30;;
23258;SDS011;11798;51.528;7.240;2023-03-25T00:21:35;3.40;;;1.13;;
23258;SDS011;11798;51.528;7.240;2023-03-25T00:24:01;5.07;;;1.23;;
23258;SDS011;11798;51.528;7.240;2023-03-25T00:26:27;2.83;;;1.13;;
23258;SDS011;11798;51.528;7.240;2023-03-25T00:28:54;4.63;;;1.20;;
23258;SDS011;11798;51.528;7.240;2023-03-25T00:31:20;5.83;;;1.50;;
23258;SDS011;11798;51.528;7.240;2023-03-25T00:33:45;4.13;;;1.50;;
23258;SDS011;11798;51.528;7.240;2023-03-25T00:36:11;3.50;;;1.40;;
23258;SDS011;11798;51.528;7.240;2023-03-25T00:38:38;4.73;;;1.10;;
23258;SDS011;11798;51.528;7.240;2023-03-25T00:43:47;4.43;;;1.00;;
23258;SDS011;11798;51.528;7.240;2023-03-25T00:46:14;6.37;;;1.33;;
23258;SDS011;11798;51.528;7.240;2023-03-25T00:48:40;6.13;;;1.77;;
23258;SDS011;11798;51.528;7.240;2023-03-25T00:51:07;4.27;;;1.10;;
23258;SDS011;11798;51.528;7.240;2023-03-25T00:53:34;6.87;;;1.50;;
23258;SDS011;11798;51.528;7.240;2023-03-25T00:56:01;3.43;;;1.37;;
23258;SDS011;11798;51.528;7.240;2023-03-25T00:58:28;5.37;;;1.60;;
23258;SDS011;11798;51.528;7.240;2023-03-25T01:00:54;4.00;;;1.67;;
23258;SDS011;11798;51.528;7.240;2023-03-25T01:03:24;5.87;;;1.40;;
23258;SDS011;11798;51.528;7.240;2023-03-25T01:05:50;3.57;;;1.60;;
23258;SDS011;11798;51.528;7.240;2023-03-25T01:08:19;4.07;;;1.63;;
23258;SDS011;11798;51.528;7.240;2023-03-25T01:10:49;5.50;;;1.67;;
23258;SDS011;11798;51.528;7.240;2023-03-25T01:13:16;6.67;;;1.67;;
23258;SDS011;11798;51.528;7.240;2023-03-25T01:15:42;5.77;;;1.50;;
23258;SDS011;11798;51.528;7.240;2023-03-25T01:18:08;5.60;;;1.40;;
23258;SDS011;11798;51.528;7.240;2023-03-25T01:20:33;3.10;;;1.40;;
23258;SDS011;11798;51.528;7.240;2023-03-25T01:22:59;3.50;;;1.20;;
23258;SDS011;11798;51.528;7.240;2023-03-25T01:25:25;4.77;;;1.63;;
23258;SDS011;11798;51.528;7.240;2023-03-25T01:27:51;3.77;;;1.70;;
23258;SDS011;11798;51.528;7.240;2023-03-25T01:30:16;4.63;;;1.27;;
23258;SDS011;11798;51.528;7.240;2023-03-25T01:32:42;6.73;;;1.60;;
23258;SDS011;11798;51.528;7.240;2023-03-25T01:35:08;3.57;;;1.43;;
23258;SDS011;11798;51.528;7.240;2023-03-25T01:37:36;5.20;;;1.83;;
23258;SDS011;11798;51.528;7.240;2023-03-25T01:40:03;6.87;;;2.00;;
23258;SDS011;11798;51.528;7.240;2023-03-25T01:42:32;5.97;;;1.80;;
23258;SDS011;11798;51.528;7.240;2023-03-25T01:47:43;4.93;;;1.80;;
23258;SDS011;11798;51.528;7.240;2023-03-25T01:50:10;4.70;;;2.00;;
23258;SDS011;11798;51.528;7.240;2023-03-25T01:52:38;5.53;;;1.37;;
23258;SDS011;11798;51.528;7.240;2023-03-25T01:55:07;5.37;;;1.70;;
23258;SDS011;11798;51.528;7.240;2023-03-25T01:57:33;3.20;;;1.43;;
23258;SDS011;11798;51.528;7.240;2023-03-25T02:00:01;5.47;;;1.80;;
23258;SDS011;11798;51.528;7.240;2023-03-25T02:02:32;6.63;;;1.80;;
23258;SDS011;11798;51.528;7.240;2023-03-25T02:05:06;3.87;;;1.63;;
23258;SDS011;11798;51.528;7.240;2023-03-25T02:07:43;5.30;;;2.00;;
23258;SDS011;11798;51.528;7.240;2023-03-25T02:10:12;8.77;;;1.87;;
23258;SDS011;11798;51.528;7.240;2023-03-25T02:12:39;6.70;;;1.47;;
23258;SDS011;11798;51.528;7.240;2023-03-25T02:15:07;6.20;;;1.80;;
23258;SDS011;11798;51.528;7.240;2023-03-25T02:17:47;5.50;;;1.77;;
23258;SDS011;11798;51.528;7.240;2023-03-25T02:37:52;7.07;;;1.43;;
23258;SDS011;11798;51.528;7.240;2023-03-25T02:40:27;6.20;;;1.73;;
23258;SDS011;11798;51.528;7.240;2023-03-25T02:43:17;6.30;;;1.30;;
23258;SDS011;11798;51.528;7.240;2023-03-25T02:45:51;4.67;;;1.20;;
23258;SDS011;11798;51.528;7.240;2023-03-25T02:48:22;2.53;;;1.30;;
23258;SDS011;11798;51.528;7.240;2023-03-25T02:50:57;3.70;;;1.70;;
23258;SDS011;11798;51.528;7.240;2023-03-25T02:53:29;4.13;;;1.43;;
23258;SDS011;11798;51.528;7.240;2023-03-25T02:56:00;3.83;;;1.37;;
23258;SDS011;11798;51.528;7.240;2023-03-25T02:58:32;4.50;;;1.57;;
23258;SDS011;11798;51.528;7.240;2023-03-25T03:00:59;3.47;;;1.10;;
23258;SDS011;11798;51.528;7.240;2023-03-25T03:03:26;4.93;;;1.30;;
23258;SDS011;11798;51.528;7.240;2023-03-25T03:05:52;2.97;;;1.23;;
23258;SDS011;11798;51.528;7.240;2023-03-25T03:23:05;4.67;;;1.27;;
23258;SDS011;11798;51.528;7.240;2023-03-25T03:25:57;2.80;;;1.53;;
23258;SDS011;11798;51.528;7.240;2023-03-25T03:31:00;4.03;;;1.47;;
23258;SDS011;11798;51.528;7.240;2023-03-25T03:36:11;2.63;;;1.50;;
23258;SDS011;11798;51.528;7.240;2023-03-25T03:38:40;5.03;;;1.77;;
23258;SDS011;11798;51.528;7.240;2023-03-25T03:41:11;4.80;;;1.67;;
23258;SDS011;11798;51.528;7.240;2023-03-25T03:43:45;4.30;;;1.40;;
23258;SDS011;11798;51.528;7.240;2023-03-25T03:46:15;4.00;;;1.33;;
23258;SDS011;11798;51.528;7.240;2023-03-25T03:48:49;6.83;;;1.93;;
23258;SDS011;11798;51.528;7.240;2023-03-25T03:51:22;3.60;;;1.50;;
23258;SDS011;11798;51.528;7.240;2023-03-25T03:53:59;4.40;;;1.43;;
23258;SDS011;11798;51.528;7.240;2023-03-25T03:56:34;5.00;;;1.77;;
23258;SDS011;11798;51.528;7.240;2023-03-25T03:59:06;5.10;;;1.63;;
23258;SDS011;11798;51.528;7.240;2023-03-25T04:01:43;5.03;;;1.70;;
23258;SDS011;11798;51.528;7.240;2023-03-25T04:04:13;5.77;;;1.90;;
23258;SDS011;11798;51.528;7.240;2023-03-25T04:06:57;3.63;;;1.70;;
23258;SDS011;11798;51.528;7.240;2023-03-25T04:09:41;4.63;;;1.60;;
23258;SDS011;11798;51.528;7.240;2023-03-25T04:12:38;5.03;;;1.77;;
23258;SDS011;11798;51.528;7.240;2023-03-25T04:15:10;6.03;;;2.00;;
23258;SDS011;11798;51.528;7.240;2023-03-25T04:17:38;4.50;;;2.17;;
23258;SDS011;11798;51.528;7.240;2023-03-25T04:20:03;6.33;;;1.63;;
23258;SDS011;11798;51.528;7.240;2023-03-25T04:22:35;4.30;;;1.70;;
23258;SDS011;11798;51.528;7.240;2023-03-25T04:25:05;6.63;;;1.73;;
23258;SDS011;11798;51.528;7.240;2023-03-25T04:27:31;6.10;;;1.80;;
23258;SDS011;11798;51.528;7.240;2023-03-25T04:29:57;3.67;;;1.73;;
23258;SDS011;11798;51.528;7.240;2023-03-25T04:32:25;5.73;;;1.93;;
23258;SDS011;11798;51.528;7.240;2023-03-25T04:34:52;7.30;;;1.70;;
23258;SDS011;11798;51.528;7.240;2023-03-25T04:37:21;4.77;;;1.80;;
23258;SDS011;11798;51.528;7.240;2023-03-25T04:39:51;6.20;;;1.97;;
23258;SDS011;11798;51.528;7.240;2023-03-25T04:42:24;4.43;;;1.83;;
23258;SDS011;11798;51.528;7.240;2023-03-25T04:44:57;9.13;;;2.03;;
23258;SDS011;11798;51.528;7.240;2023-03-25T04:47:23;4.87;;;2.00;;
23258;SDS011;11798;51.528;7.240;2023-03-25T04:49:49;6.60;;;1.77;;
23258;SDS011;11798;51.528;7.240;2023-03-25T04:52:15;7.47;;;1.80;;
23258;SDS011;11798;51.528;7.240;2023-03-25T04:54:41;6.87;;;2.10;;
23258;SDS011;11798;51.528;7.240;2023-03-25T04:57:08;6.23;;;1.73;;
23258;SDS011;11798;51.528;7.240;2023-03-25T04:59:34;5.50;;;1.83;;
23258;SDS011;11798;51.528;7.240;2023-03-25T05:02:01;6.97;;;2.13;;
23258;SDS011;11798;51.528;7.240;2023-03-25T05:04:29;5.57;;;2.13;;
23258;SDS011;11798;51.528;7.240;2023-03-25T05:06:55;7.23;;;1.90;;
23258;SDS011;11798;51.528;7.240;2023-03-25T05:09:21;8.40;;;1.70;;
23258;SDS011;11798;51.528;7.240;2023-03-25T05:11:47;5.87;;;1.73;;
23258;SDS011;11798;51.528;7.240;2023-03-25T05:14:15;5.70;;;1.67;;
23258;SDS011;11798;51.528;7.240;2023-03-25T05:16:42;5.87;;;1.97;;
23258;SDS011;11798;51.528;7.240;2023-03-25T05:19:09;5.87;;;2.03;;
23258;SDS011;11798;51.528;7.240;2023-03-25T05:21:35;6.50;;;1.93;;
23258;SDS011;11798;51.528;7.240;2023-03-25T05:24:06;9.13;;;1.87;;
23258;SDS011;11798;51.528;7.240;2023-03-25T05:26:34;9.10;;;2.10;;
23258;SDS011;11798;51.528;7.240;2023-03-25T05:29:05;7.90;;;2.07;;
23258;SDS011;11798;51.528;7.240;2023-03-25T05:31:33;6.37;;;1.73;;
23258;SDS011;11798;51.528;7.240;2023-03-25T05:33:59;7.00;;;1.60;;
23258;SDS011;11798;51.528;7.240;2023-03-25T05:36:25;6.63;;;1.90;;
23258;SDS011;11798;51.528;7.240;2023-03-25T05:38:51;5.90;;;2.17;;
23258;SDS011;11798;51.528;7.240;2023-03-25T05:41:20;7.33;;;1.90;;
23258;SDS011;11798;51.528;7.240;2023-03-25T05:43:47;6.47;;;1.90;;
23258;SDS011;11798;51.528;7.240;2023-03-25T05:46:15;8.40;;;1.70;;
23258;SDS011;11798;51.528;7.240;2023-03-25T05:48:42;3.90;;;1.60;;
23258;SDS011;11798;51.528;7.240;2023-03-25T05:51:10;7.77;;;2.50;;
23258;SDS011;11798;51.528;7.240;2023-03-25T05:53:44;6.03;;;1.57;;
23258;SDS011;11798;51.528;7.240;2023-03-25T05:56:17;5.30;;;1.30;;
23258;SDS011;11798;51.528;7.240;2023-03-25T05:58:45;7.40;;;2.10;;
23258;SDS011;11798;51.528;7.240;2023-03-25T06:01:15;6.63;;;1.73;;
23258;SDS011;11798;51.528;7.240;2023-03-25T06:03:43;5.70;;;1.57;;
23258;SDS011;11798;51.528;7.240;2023-03-25T06:06:09;7.07;;;1.87;;
23258;SDS011;11798;51.528;7.240;2023-03-25T06:08:46;7.97;;;1.70;;
23258;SDS011;11798;51.528;7.240;2023-03-25T06:11:14;7.53;;;2.33;;
23258;SDS011;11798;51.528;7.240;2023-03-25T06:13:40;7.80;;;1.63;;
23258;SDS011;11798;51.528;7.240;2023-03-25T06:16:13;5.77;;;1.77;;
23258;SDS011;11798;51.528;7.240;2023-03-25T06:18:43;6.37;;;1.90;;
23258;SDS011;11798;51.528;7.240;2023-03-25T06:21:09;5.17;;;2.00;;
23258;SDS011;11798;51.528;7.240;2023-03-25T06:23:35;7.60;;;1.80;;
23258;SDS011;11798;51.528;7.240;2023-03-25T06:26:03;5.10;;;1.70;;
23258;SDS011;11798;51.528;7.240;2023-03-25T06:28:29;7.83;;;1.90;;
23258;SDS011;11798;51.528;7.240;2023-03-25T06:30:57;9.63;;;2.77;;
23258;SDS011;11798;51.528;7.240;2023-03-25T06:33:23;8.10;;;2.17;;
23258;SDS011;11798;51.528;7.240;2023-03-25T06:35:48;4.20;;;1.63;;
23258;SDS011;11798;51.528;7.240;2023-03-25T06:38:17;6.80;;;1.73;;
23258;SDS011;11798;51.528;7.240;2023-03-25T06:40:44;7.47;;;2.27;;
23258;SDS011;11798;51.528;7.240;2023-03-25T06:43:11;8.90;;;2.07;;
23258;SDS011;11798;51.528;7.240;2023-03-25T06:45:37;12.23;;;2.20;;
23258;SDS011;11798;51.528;7.240;2023-03-25T06:48:03;6.53;;;1.90;;
23258;SDS011;11798;51.528;7.240;2023-03-25T06:50:29;8.43;;;1.77;;
23258;SDS011;11798;51.528;7.240;2023-03-25T06:52:56;10.10;;;1.70;;
23258;SDS011;11798;51.528;7.240;2023-03-25T06:55:22;6.17;;;2.03;;
23258;SDS011;11798;51.528;7.240;2023-03-25T06:57:47;7.97;;;2.40;;
23258;SDS011;11798;51.528;7.240;2023-03-25T07:00:13;9.93;;;1.97;;
23258;SDS011;11798;51.528;7.240;2023-03-25T07:02:44;9.63;;;1.80;;
23258;SDS011;11798;51.528;7.240;2023-03-25T07:05:10;6.33;;;1.73;;
23258;SDS011;11798;51.528;7.240;2023-03-25T07:07:36;8.90;;;2.40;;
23258;SDS011;11798;51.528;7.240;2023-03-25T07:10:02;10.13;;;2.93;;
23258;SDS011;11798;51.528;7.240;2023-03-25T07:12:28;8.97;;;1.93;;
23258;SDS011;11798;51.528;7.240;2023-03-25T07:14:54;9.67;;;1.90;;
23258;SDS011;11798;51.528;7.240;2023-03-25T07:17:21;5.47;;;1.93;;
23258;SDS011;11798;51.528;7.240;2023-03-25T07:19:47;9.93;;;2.60;;
23258;SDS011;11798;51.528;7.240;2023-03-25T07:22:13;5.47;;;1.73;;
23258;SDS011;11798;51.528;7.240;2023-03-25T07:24:39;5.17;;;1.87;;
23258;SDS011;11798;51.528;7.240;2023-03-25T07:27:05;5.87;;;1.80;;
23258;SDS011;11798;51.528;7.240;2023-03-25T07:29:31;7.47;;;2.47;;
23258;SDS011;11798;51.528;7.240;2023-03-25T07:31:56;7.20;;;1.90;;
23258;SDS011;11798;51.528;7.240;2023-03-25T07:34:22;8.17;;;1.90;;
23258;SDS011;11798;51.528;7.240;2023-03-25T07:36:48;7.57;;;2.23;;
23258;SDS011;11798;51.528;7.240;2023-03-25T07:39:14;6.37;;;1.87;;
23258;SDS011;11798;51.528;7.240;2023-03-25T07:41:47;8.50;;;2.40;;
23258;SDS011;11798;51.528;7.240;2023-03-25T07:44:15;14.23;;;3.07;;
23258;SDS011;11798;51.528;7.240;2023-03-25T07:46:44;8.37;;;2.40;;
23258;SDS011;11798;51.528;7.240;2023-03-25T07:49:10;9.87;;;2.40;;
23258;SDS011;11798;51.528;7.240;2023-03-25T07:51:36;8.20;;;2.10;;
23258;SDS011;11798;51.528;7.240;2023-03-25T07:54:02;12.43;;;2.40;;
23258;SDS011;11798;51.528;7.240;2023-03-25T07:56:28;9.10;;;2.30;;
23258;SDS011;11798;51.528;7.240;2023-03-25T07:58:53;7.70;;;2.50;;
23258;SDS011;11798;51.528;7.240;2023-03-25T08:01:19;8.00;;;2.40;;
23258;SDS011;11798;51.528;7.240;2023-03-25T08:03:44;8.67;;;1.67;;
23258;SDS011;11798;51.528;7.240;2023-03-25T08:06:10;5.17;;;1.97;;
23258;SDS011;11798;51.528;7.240;2023-03-25T08:08:36;7.70;;;2.00;;
23258;SDS011;11798;51.528;7.240;2023-03-25T08:11:01;11.50;;;2.13;;
23258;SDS011;11798;51.528;7.240;2023-03-25T08:13:27;9.93;;;2.20;;
23258;SDS011;11798;51.528;7.240;2023-03-25T08:15:53;8.90;;;2.20;;
23258;SDS011;11798;51.528;7.240;2023-03-25T08:18:18;6.70;;;2.10;;
23258;SDS011;11798;51.528;7.240;2023-03-25T08:20:44;10.67;;;1.97;;
23258;SDS011;11798;51.528;7.240;2023-03-25T08:23:10;8.33;;;1.90;;
23258;SDS011;11798;51.528;7.240;2023-03-25T08:25:36;8.60;;;2.40;;
23258;SDS011;11798;51.528;7.240;2023-03-25T08:28:03;5.87;;;2.23;;
23258;SDS011;11798;51.528;7.240;2023-03-25T08:30:30;7.67;;;2.10;;
23258;SDS011;11798;51.528;7.240;2023-03-25T08:33:03;7.33;;;2.20;;
23258;SDS011;11798;51.528;7.240;2023-03-25T08:35:34;8.27;;;2.33;;
23258;SDS011;11798;51.528;7.240;2023-03-25T08:38:01;4.60;;;2.07;;
23258;SDS011;11798;51.528;7.240;2023-03-25T08:40:31;4.57;;;2.10;;
23258;SDS011;11798;51.528;7.240;2023-03-25T08:42:58;6.53;;;1.73;;
23258;SDS011;11798;51.528;7.240;2023-03-25T08:45:23;9.13;;;2.40;;
23258;SDS011;11798;51.528;7.240;2023-03-25T08:47:49;10.97;;;2.63;;
23258;SDS011;11798;51.528;7.240;2023-03-25T08:50:15;10.40;;;3.43;;
23258;SDS011;11798;51.528;7.240;2023-03-25T08:52:40;9.07;;;2.60;;
23258;SDS011;11798;51.528;7.240;2023-03-25T08:55:06;12.87;;;2.50;;
23258;SDS011;11798;51.528;7.240;2023-03-25T08:57:34;11.63;;;2.40;;
23258;SDS011;11798;51.528;7.240;2023-03-25T09:00:02;6.80;;;2.63;;
23258;SDS011;11798;51.528;7.240;2023-03-25T09:02:37;8.93;;;3.10;;
23258;SDS011;11798;51.528;7.240;2023-03-25T09:05:03;9.47;;;2.50;;
23258;SDS011;11798;51.528;7.240;2023-03-25T09:07:32;8.20;;;2.23;;
23258;SDS011;11798;51.528;7.240;2023-03-25T09:09:58;8.80;;;3.03;;
23258;SDS011;11798;51.528;7.240;2023-03-25T09:12:23;6.63;;;2.57;;
23258;SDS011;11798;51.528;7.240;2023-03-25T09:14:49;8.97;;;2.30;;
23258;SDS011;11798;51.528;7.240;2023-03-25T09:17:15;9.23;;;2.27;;
23258;SDS011;11798;51.528;7.240;2023-03-25T09:19:40;7.73;;;2.53;;
23258;SDS011;11798;51.528;7.240;2023-03-25T09:22:06;10.67;;;2.50;;
23258;SDS011;11798;51.528;7.240;2023-03-25T09:24:32;6.57;;;2.20;;
23258;SDS011;11798;51.528;7.240;2023-03-25T09:26:59;7.80;;;2.47;;
23258;SDS011;11798;51.528;7.240;2023-03-25T09:29:26;11.57;;;3.13;;
23258;SDS011;11798;51.528;7.240;2023-03-25T09:31:52;7.73;;;2.10;;
23258;SDS011;11798;51.528;7.240;2023-03-25T09:34:18;8.23;;;2.33;;
23258;SDS011;11798;51.528;7.240;2023-03-25T09:36:43;9.77;;;2.50;;
23258;SDS011;11798;51.528;7.240;2023-03-25T09:39:09;14.77;;;2.53;;
23258;SDS011;11798;51.528;7.240;2023-03-25T09:47:21;12.90;;;3.10;;
23258;SDS011;11798;51.528;7.240;2023-03-25T09:49:49;8.67;;;2.97;;
23258;SDS011;11798;51.528;7.240;2023-03-25T09:52:23;11.53;;;2.73;;
23258;SDS011;11798;51.528;7.240;2023-03-25T09:54:59;12.50;;;2.83;;
23258;SDS011;11798;51.528;7.240;2023-03-25T09:57:29;13.93;;;2.83;;
23258;SDS011;11798;51.528;7.240;2023-03-25T09:59:58;13.40;;;3.00;;
23258;SDS011;11798;51.528;7.240;2023-03-25T10:05:18;17.63;;;3.93;;
23258;SDS011;11798;51.528;7.240;2023-03-25T10:21:49;13.47;;;3.13;;
23258;SDS011;11798;51.528;7.240;2023-03-25T10:24:27;12.60;;;3.00;;
23258;SDS011;11798;51.528;7.240;2023-03-25T10:29:27;14.97;;;3.10;;
23258;SDS011;11798;51.528;7.240;2023-03-25T10:32:10;15.47;;;3.37;;
23258;SDS011;11798;51.528;7.240;2023-03-25T10:34:48;11.17;;;2.80;;
23258;SDS011;11798;51.528;7.240;2023-03-25T10:37:16;10.93;;;2.80;;
23258;SDS011;11798;51.528;7.240;2023-03-25T10:39:52;11.20;;;2.60;;
23258;SDS011;11798;51.528;7.240;2023-03-25T10:43:23;12.10;;;2.77;;
23258;SDS011;11798;51.528;7.240;2023-03-25T10:45:47;14.97;;;4.20;;
23258;SDS011;11798;51.528;7.240;2023-03-25T10:50:47;13.30;;;3.27;;
23258;SDS011;11798;51.528;7.240;2023-03-25T10:53:19;12.33;;;3.87;;
23258;SDS011;11798;51.528;7.240;2023-03-25T10:55:48;16.80;;;3.80;;
23258;SDS011;11798;51.528;7.240;2023-03-25T10:58:19;11.80;;;3.60;;
23258;SDS011;11798;51.528;7.240;2023-03-25T11:00:46;15.33;;;3.90;;
23258;SDS011;11798;51.528;7.240;2023-03-25T11:03:15;15.07;;;3.93;;
23258;SDS011;11798;51.528;7.240;2023-03-25T11:05:54;13.40;;;3.03;;
23258;SDS011;11798;51.528;7.240;2023-03-25T11:08:21;18.70;;;3.93;;
23258;SDS011;11798;51.528;7.240;2023-03-25T11:10:48;14.07;;;4.17;;
23258;SDS011;11798;51.528;7.240;2023-03-25T11:13:19;18.60;;;3.93;;
23258;SDS011;11798;51.528;7.240;2023-03-25T11:15:52;14.63;;;4.67;;
23258;SDS011;11798;51.528;7.240;2023-03-25T11:18:23;11.80;;;2.63;;
23258;SDS011;11798;51.528;7.240;2023-03-25T11:20:54;11.17;;;3.23;;
23258;SDS011;11798;51.528;7.240;2023-03-25T11:23:48;15.20;;;3.90;;
23258;SDS011;11798;51.528;7.240;2023-03-25T11:26:19;10.80;;;3.60;;
23258;SDS011;11798;51.528;7.240;2023-03-25T11:28:48;11.40;;;2.83;;
23258;SDS011;11798;51.528;7.240;2023-03-25T11:31:22;9.43;;;2.63;;
23258;SDS011;11798;51.528;7.240;2023-03-25T11:34:12;7.90;;;2.47;;
23258;SDS011;11798;51.528;7.240;2023-03-25T11:36:47;8.27;;;2.60;;
23258;SDS011;11798;51.528;7.240;2023-03-25T11:41:58;5.97;;;2.03;;
23258;SDS011;11798;51.528;7.240;2023-03-25T11:44:28;6.83;;;1.90;;
23258;SDS011;11798;51.528;7.240;2023-03-25T11:46:56;9.87;;;2.50;;
23258;SDS011;11798;51.528;7.240;2023-03-25T11:49:25;8.67;;;1.97;;
23258;SDS011;11798;51.528;7.240;2023-03-25T11:51:58;5.70;;;1.97;;
23258;SDS011;11798;51.528;7.240;2023-03-25T11:54:26;9.20;;;2.40;;
23258;SDS011;11798;51.528;7.240;2023-03-25T11:56:52;8.87;;;1.90;;
23258;SDS011;11798;51.528;7.240;2023-03-25T11:59:26;5.83;;;2.30;;
23258;SDS011;11798;51.528;7.240;2023-03-25T12:02:02;6.17;;;1.77;;
23258;SDS011;11798;51.528;7.240;2023-03-25T12:04:55;9.97;;;2.77;;
23258;SDS011;11798;51.528;7.240;2023-03-25T12:07:41;10.03;;;1.60;;
23258;SDS011;11798;51.528;7.240;2023-03-25T12:10:16;6.70;;;1.67;;
23258;SDS011;11798;51.528;7.240;2023-03-25T12:12:54;8.87;;;1.80;;
23258;SDS011;11798;51.528;7.240;2023-03-25T12:26:07;10.47;;;2.60;;
23258;SDS011;11798;51.528;7.240;2023-03-25T12:51:06;4.53;;;1.63;;
23258;SDS011;11798;51.528;7.240;2023-03-25T13:04:35;6.37;;;2.17;;
23258;SDS011;11798;51.528;7.240;2023-03-25T13:07:06;8.23;;;2.17;;
23258;SDS011;11798;51.528;7.240;2023-03-25T13:15:01;12.60;;;2.90;;
23258;SDS011;11798;51.528;7.240;2023-03-25T13:17:33;8.93;;;2.23;;
23258;SDS011;11798;51.528;7.240;2023-03-25T13:20:26;8.33;;;2.13;;
23258;SDS011;11798;51.528;7.240;2023-03-25T13:22:55;11.00;;;2.53;;
23258;SDS011;11798;51.528;7.240;2023-03-25T13:28:22;10.60;;;2.93;;
23258;SDS011;11798;51.528;7.240;2023-03-25T13:30:52;9.67;;;2.27;;
23258;SDS011;11798;51.528;7.240;2023-03-25T13:33:25;7.30;;;1.43;;
23258;SDS011;11798;51.528;7.240;2023-03-25T13:35:59;7.27;;;1.87;;
23258;SDS011;11798;51.528;7.240;2023-03-25T13:38:36;4.83;;;1.90;;
23258;SDS011;11798;51.528;7.240;2023-03-25T13:46:35;5.23;;;1.50;;
23258;SDS011;11798;51.528;7.240;2023-03-25T13:52:11;5.27;;;1.10;;
23258;SDS011;11798;51.528;7.240;2023-03-25T13:54:50;6.80;;;1.63;;
23258;SDS011;11798;51.528;7.240;2023-03-25T14:05:57;3.27;;;1.37;;
23258;SDS011;11798;51.528;7.240;2023-03-25T14:09:04;5.33;;;1.57;;
23258;SDS011;11798;51.528;7.240;2023-03-25T14:11:46;3.23;;;1.33;;
23258;SDS011;11798;51.528;7.240;2023-03-25T14:14:26;7.00;;;1.30;;
23258;SDS011;11798;51.528;7.240;2023-03-25T14:16:56;6.17;;;1.60;;
23258;SDS011;11798;51.528;7.240;2023-03-25T14:19:35;5.67;;;1.43;;
23258;SDS011;11798;51.528;7.240;2023-03-25T14:22:09;6.23;;;1.77;;
23258;SDS011;11798;51.528;7.240;2023-03-25T14:24:42;4.43;;;1.40;;
23258;SDS011;11798;51.528;7.240;2023-03-25T14:34:56;5.57;;;1.53;;
23258;SDS011;11798;51.528;7.240;2023-03-25T14:43:23;6.10;;;1.27;;
23258;SDS011;11798;51.528;7.240;2023-03-25T14:48:52;6.63;;;1.73;;
23258;SDS011;11798;51.528;7.240;2023-03-25T14:51:45;2.97;;;1.23;;
23258;SDS011;11798;51.528;7.240;2023-03-25T14:54:28;2.53;;;1.13;;
23258;SDS011;11798;51.528;7.240;2023-03-25T14:57:07;5.97;;;1.43;;
23258;SDS011;11798;51.528;7.240;2023-03-25T14:59:43;3.10;;;1.50;;
23258;SDS011;11798;51.528;7.240;2023-03-25T15:02:15;6.63;;;1.60;;
23258;SDS011;11798;51.528;7.240;2023-03-25T15:05:19;3.23;;;1.17;;
23258;SDS011;11798;51.528;7.240;2023-03-25T15:07:53;3.37;;;1.20;;
23258;SDS011;11798;51.528;7.240;2023-03-25T15:10:31;2.67;;;1.10;;
23258;SDS011;11798;51.528;7.240;2023-03-25T15:15:59;5.57;;;1.23;;
23258;SDS011;11798;51.528;7.240;2023-03-25T15:21:08;2.07;;;1.00;;
23258;SDS011;11798;51.528;7.240;2023-03-25T15:23:41;2.63;;;1.43;;
23258;SDS011;11798;51.528;7.240;2023-03-25T15:26:28;4.33;;;1.10;;
23258;SDS011;11798;51.528;7.240;2023-03-25T15:31:45;2.77;;;1.10;;
23258;SDS011;11798;51.528;7.240;2023-03-25T15:48:26;6.93;;;2.03;;
23258;SDS011;11798;51.528;7.240;2023-03-25T15:56:41;6.10;;;2.20;;
23258;SDS011;11798;51.528;7.240;2023-03-25T16:01:43;6.20;;;2.07;;
23258;SDS011;11798;51.528;7.240;2023-03-25T16:06:49;7.73;;;2.90;;
23258;SDS011;11798;51.528;7.240;2023-03-25T16:09:21;5.13;;;2.10;;
23258;SDS011;11798;51.528;7.240;2023-03-25T16:11:50;5.50;;;1.70;;
23258;SDS011;11798;51.528;7.240;2023-03-25T16:14:17;6.63;;;2.33;;
23258;SDS011;11798;51.528;7.240;2023-03-25T16:16:49;3.50;;;2.00;;
23258;SDS011;11798;51.528;7.240;2023-03-25T16:22:05;7.53;;;2.50;;
23258;SDS011;11798;51.528;7.240;2023-03-25T16:24:40;11.23;;;2.50;;
23258;SDS011;11798;51.528;7.240;2023-03-25T16:27:09;7.47;;;2.30;;
23258;SDS011;11798;51.528;7.240;2023-03-25T16:29:36;7.60;;;2.37;;
23258;SDS011;11798;51.528;7.240;2023-03-25T16:32:06;5.17;;;2.17;;
23258;SDS011;11798;51.528;7.240;2023-03-25T16:34:42;10.13;;;2.80;;
23258;SDS011;11798;51.528;7.240;2023-03-25T16:37:09;9.10;;;2.50;;
23258;SDS011;11798;51.528;7.240;2023-03-25T16:39:35;7.87;;;2.47;;
23258;SDS011;11798;51.528;7.240;2023-03-25T16:42:44;6.70;;;1.80;;
23258;SDS011;11798;51.528;7.240;2023-03-25T16:44:59;8.47;;;3.00;;
23258;SDS011;11798;51.528;7.240;2023-03-25T16:47:31;8.63;;;2.30;;
23258;SDS011;11798;51.528;7.240;2023-03-25T16:49:59;8.30;;;2.17;;
23258;SDS011;11798;51.528;7.240;2023-03-25T16:52:26;5.70;;;2.10;;
23258;SDS011;11798;51.528;7.240;2023-03-25T16:57:31;10.63;;;2.97;;
23258;SDS011;11798;51.528;7.240;2023-03-25T17:00:02;7.80;;;2.50;;
23258;SDS011;11798;51.528;7.240;2023-03-25T17:02:41;10.63;;;2.47;;
23258;SDS011;11798;51.528;7.240;2023-03-25T17:07:49;10.67;;;2.57;;
23258;SDS011;11798;51.528;7.240;2023-03-25T17:10:32;10.13;;;2.77;;
23258;SDS011;11798;51.528;7.240;2023-03-25T17:13:29;9.47;;;3.23;;
23258;SDS011;11798;51.528;7.240;2023-03-25T17:15:59;10.27;;;2.77;;
23258;SDS011;11798;51.528;7.240;2023-03-25T17:18:26;12.90;;;3.90;;
23258;SDS011;11798;51.528;7.240;2023-03-25T17:20:56;7.87;;;2.37;;
23258;SDS011;11798;51.528;7.240;2023-03-25T17:23:34;13.67;;;2.67;;
23258;SDS011;11798;51.528;7.240;2023-03-25T17:28:31;13.17;;;3.20;;
23258;SDS011;11798;51.528;7.240;2023-03-25T17:36:30;13.57;;;3.23;;
23258;SDS011;11798;51.528;7.240;2023-03-25T17:38:58;9.60;;;2.90;;
23258;SDS011;11798;51.528;7.240;2023-03-25T17:41:27;13.33;;;3.10;;
23258;SDS011;11798;51.528;7.240;2023-03-25T17:43:55;11.33;;;4.30;;
23258;SDS011;11798;51.528;7.240;2023-03-25T17:46:25;10.37;;;3.03;;
23258;SDS011;11798;51.528;7.240;2023-03-25T17:48:53;11.83;;;3.03;;
23258;SDS011;11798;51.528;7.240;2023-03-25T17:51:21;10.80;;;3.10;;
23258;SDS011;11798;51.528;7.240;2023-03-25T17:53:49;11.67;;;3.33;;
23258;SDS011;11798;51.528;7.240;2023-03-25T17:56:17;14.50;;;3.73;;
23258;SDS011;11798;51.528;7.240;2023-03-25T17:58:48;11.70;;;4.30;;
23258;SDS011;11798;51.528;7.240;2023-03-25T18:01:14;11.83;;;3.27;;
23258;SDS011;11798;51.528;7.240;2023-03-25T18:06:10;17.20;;;3.67;;
23258;SDS011;11798;51.528;7.240;2023-03-25T18:08:36;12.03;;;3.43;;
23258;SDS011;11798;51.528;7.240;2023-03-25T18:11:02;13.20;;;3.50;;
23258;SDS011;11798;51.528;7.240;2023-03-25T18:13:29;16.73;;;4.30;;
23258;SDS011;11798;51.528;7.240;2023-03-25T18:15:54;9.20;;;3.60;;
23258;SDS011;11798;51.528;7.240;2023-03-25T18:18:21;11.67;;;4.00;;
23258;SDS011;11798;51.528;7.240;2023-03-25T18:20:51;11.30;;;3.93;;
23258;SDS011;11798;51.528;7.240;2023-03-25T18:23:19;10.80;;;3.93;;
23258;SDS011;11798;51.528;7.240;2023-03-25T18:25:45;12.20;;;3.70;;
23258;SDS011;11798;51.528;7.240;2023-03-25T18:28:12;11.23;;;3.20;;
23258;SDS011;11798;51.528;7.240;2023-03-25T18:33:07;11.10;;;4.27;;
23258;SDS011;11798;51.528;7.240;2023-03-25T18:35:33;10.57;;;3.60;;
23258;SDS011;11798;51.528;7.240;2023-03-25T18:37:59;13.87;;;3.77;;